sensor_id;sensor_type;location;lat;lon;timestamp;pressure;altitude;pressure_sealevel;temperature
21210;BMP180;10762;42.206;25.326;2024-02-21T00:00:56;100185.00;;;12.30
21210;BMP180;10762;42.206;25.326;2024-02-21T00:03:22;100187.00;;;12.30
21210;BMP180;10762;42.206;25.326;2024-02-21T00:05:48;100183.00;;;12.40
21210;BMP180;10762;42.206;25.326;2024-02-21T00:08:14;100186.00;;;12.40
21210;BMP180;10762;42.206;25.326;2024-02-21T00:10:40;100190.00;;;12.40
21210;BMP180;10762;42.206;25.326;2024-02-21T00:13:07;100192.00;;;12.40
21210;BMP180;10762;42.206;25.326;2024-02-21T00:15:33;100187.00;;;12.40
21210;BMP180;10762;42.206;25.326;2024-02-21T00:17:59;100175.00;;;12.40
21210;BMP180;10762;42.206;25.326;2024-02-21T00:20:25;100181.00;;;12.40
21210;BMP180;10762;42.206;25.326;2024-02-21T00:22:51;100176.00;;;12.40
21210;BMP180;10762;42.206;25.326;2024-02-21T00:25:18;100175.00;;;12.40
21210;BMP180;10762;42.206;25.326;2024-02-21T00:27:44;100181.00;;;12.40
21210;BMP180;10762;42.206;25.326;2024-02-21T00:30:10;100182.00;;;12.30
21210;BMP180;10762;42.206;25.326;2024-02-21T00:32:36;100178.00;;;12.30
21210;BMP180;10762;42.206;25.326;2024-02-21T00:35:02;100192.00;;;12.30
21210;BMP180;10762;42.206;25.326;2024-02-21T00:37:28;100190.00;;;12.30
21210;BMP180;10762;42.206;25.326;2024-02-21T00:39:54;100193.00;;;12.20
21210;BMP180;10762;42.206;25.326;2024-02-21T00:42:21;100195.00;;;12.10
21210;BMP180;10762;42.206;25.326;2024-02-21T00:44:47;100189.00;;;12.10
21210;BMP180;10762;42.206;25.326;2024-02-21T00:47:13;100193.00;;;12.10
21210;BMP180;10762;42.206;25.326;2024-02-21T00:49:39;100190.00;;;12.10
21210;BMP180;10762;42.206;25.326;2024-02-21T00:52:05;100197.00;;;12.10
21210;BMP180;10762;42.206;25.326;2024-02-21T00:54:31;100198.00;;;12.00
21210;BMP180;10762;42.206;25.326;2024-02-21T00:56:57;100196.00;;;12.00
21210;BMP180;10762;42.206;25.326;2024-02-21T00:59:23;100198.00;;;12.00
21210;BMP180;10762;42.206;25.326;2024-02-21T01:01:49;100186.00;;;12.00
21210;BMP180;10762;42.206;25.326;2024-02-21T01:04:15;100188.00;;;12.00
21210;BMP180;10762;42.206;25.326;2024-02-21T01:06:41;100200.00;;;12.00
21210;BMP180;10762;42.206;25.326;2024-02-21T01:09:10;100195.00;;;11.90
21210;BMP180;10762;42.206;25.326;2024-02-21T01:11:36;100196.00;;;11.90
21210;BMP180;10762;42.206;25.326;2024-02-21T01:14:02;100195.00;;;11.90
21210;BMP180;10762;42.206;25.326;2024-02-21T01:16:28;100192.00;;;11.80
21210;BMP180;10762;42.206;25.326;2024-02-21T01:18:54;100196.00;;;11.80
21210;BMP180;10762;42.206;25.326;2024-02-21T01:21:21;100193.00;;;11.70
21210;BMP180;10762;42.206;25.326;2024-02-21T01:23:47;100197.00;;;11.60
21210;BMP180;10762;42.206;25.326;2024-02-21T01:26:13;100185.00;;;11.50
21210;BMP180;10762;42.206;25.326;2024-02-21T01:28:41;100191.00;;;11.50
21210;BMP180;10762;42.206;25.326;2024-02-21T01:31:07;100194.00;;;11.50
21210;BMP180;10762;42.206;25.326;2024-02-21T01:33:33;100191.00;;;11.40
21210;BMP180;10762;42.206;25.326;2024-02-21T01:36:04;100186.00;;;11.30
21210;BMP180;10762;42.206;25.326;2024-02-21T01:38:33;100179.00;;;11.30
21210;BMP180;10762;42.206;25.326;2024-02-21T01:40:59;100191.00;;;11.30
21210;BMP180;10762;42.206;25.326;2024-02-21T01:43:25;100192.00;;;11.20
21210;BMP180;10762;42.206;25.326;2024-02-21T01:45:53;100185.00;;;11.20
21210;BMP180;10762;42.206;25.326;2024-02-21T01:48:19;100192.00;;;11.20
21210;BMP180;10762;42.206;25.326;2024-02-21T01:50:46;100210.00;;;11.10
21210;BMP180;10762;42.206;25.326;2024-02-21T01:53:13;100199.00;;;11.00
21210;BMP180;10762;42.206;25.326;2024-02-21T01:55:47;100193.00;;;10.90
21210;BMP180;10762;42.206;25.326;2024-02-21T01:58:13;100190.00;;;10.80
21210;BMP180;10762;42.206;25.326;2024-02-21T02:00:40;100182.00;;;10.70
21210;BMP180;10762;42.206;25.326;2024-02-21T02:03:11;100174.00;;;10.80
21210;BMP180;10762;42.206;25.326;2024-02-21T02:05:44;100188.00;;;10.80
21210;BMP180;10762;42.206;25.326;2024-02-21T02:08:10;100179.00;;;10.80
21210;BMP180;10762;42.206;25.326;2024-02-21T02:10:36;100193.00;;;10.80
21210;BMP180;10762;42.206;25.326;2024-02-21T02:13:03;100192.00;;;10.70
21210;BMP180;10762;42.206;25.326;2024-02-21T02:15:37;100191.00;;;10.70
21210;BMP180;10762;42.206;25.326;2024-02-21T02:18:03;100178.00;;;10.70
21210;BMP180;10762;42.206;25.326;2024-02-21T02:20:29;100179.00;;;10.80
21210;BMP180;10762;42.206;25.326;2024-02-21T02:22:56;100184.00;;;10.80
21210;BMP180;10762;42.206;25.326;2024-02-21T02:25:23;100182.00;;;10.80
21210;BMP180;10762;42.206;25.326;2024-02-21T02:27:49;100175.00;;;10.70
21210;BMP180;10762;42.206;25.326;2024-02-21T02:30:15;100178.00;;;10.70
21210;BMP180;10762;42.206;25.326;2024-02-21T02:32:44;100178.00;;;10.70
21210;BMP180;10762;42.206;25.326;2024-02-21T02:35:10;100178.00;;;10.70
21210;BMP180;10762;42.206;25.326;2024-02-21T02:37:36;100170.00;;;10.80
21210;BMP180;10762;42.206;25.326;2024-02-21T02:40:05;100164.00;;;10.70
21210;BMP180;10762;42.206;25.326;2024-02-21T02:42:31;100159.00;;;10.70
21210;BMP180;10762;42.206;25.326;2024-02-21T02:44:57;100161.00;;;10.80
21210;BMP180;10762;42.206;25.326;2024-02-21T02:47:23;100163.00;;;10.80
21210;BMP180;10762;42.206;25.326;2024-02-21T02:49:49;100164.00;;;10.80
21210;BMP180;10762;42.206;25.326;2024-02-21T02:52:17;100155.00;;;10.80
21210;BMP180;10762;42.206;25.326;2024-02-21T02:54:44;100159.00;;;10.80
21210;BMP180;10762;42.206;25.326;2024-02-21T02:57:10;100162.00;;;10.80
21210;BMP180;10762;42.206;25.326;2024-02-21T02:59:36;100165.00;;;10.80
21210;BMP180;10762;42.206;25.326;2024-02-21T03:02:02;100163.00;;;10.80
21210;BMP180;10762;42.206;25.326;2024-02-21T03:04:28;100164.00;;;10.80
21210;BMP180;10762;42.206;25.326;2024-02-21T03:06:55;100160.00;;;10.80
21210;BMP180;10762;42.206;25.326;2024-02-21T03:09:21;100167.00;;;10.80
21210;BMP180;10762;42.206;25.326;2024-02-21T03:11:47;100160.00;;;10.70
21210;BMP180;10762;42.206;25.326;2024-02-21T03:14:13;100158.00;;;10.70
21210;BMP180;10762;42.206;25.326;2024-02-21T03:16:39;100159.00;;;10.60
21210;BMP180;10762;42.206;25.326;2024-02-21T03:19:05;100162.00;;;10.60
21210;BMP180;10762;42.206;25.326;2024-02-21T03:21:31;100157.00;;;10.60
21210;BMP180;10762;42.206;25.326;2024-02-21T03:23:57;100156.00;;;10.60
21210;BMP180;10762;42.206;25.326;2024-02-21T03:26:23;100160.00;;;10.60
21210;BMP180;10762;42.206;25.326;2024-02-21T03:28:49;100169.00;;;10.60
21210;BMP180;10762;42.206;25.326;2024-02-21T03:31:15;100169.00;;;10.50
21210;BMP180;10762;42.206;25.326;2024-02-21T03:33:42;100169.00;;;10.60
21210;BMP180;10762;42.206;25.326;2024-02-21T03:36:14;100174.00;;;10.60
21210;BMP180;10762;42.206;25.326;2024-02-21T03:38:41;100167.00;;;10.50
21210;BMP180;10762;42.206;25.326;2024-02-21T03:41:07;100160.00;;;10.50
21210;BMP180;10762;42.206;25.326;2024-02-21T03:43:33;100162.00;;;10.50
21210;BMP180;10762;42.206;25.326;2024-02-21T03:45:59;100169.00;;;10.50
21210;BMP180;10762;42.206;25.326;2024-02-21T03:48:25;100162.00;;;10.50
21210;BMP180;10762;42.206;25.326;2024-02-21T03:50:51;100162.00;;;10.50
21210;BMP180;10762;42.206;25.326;2024-02-21T03:53:17;100163.00;;;10.50
21210;BMP180;10762;42.206;25.326;2024-02-21T03:55:43;100158.00;;;10.50
21210;BMP180;10762;42.206;25.326;2024-02-21T03:58:09;100163.00;;;10.60
21210;BMP180;10762;42.206;25.326;2024-02-21T04:00:35;100157.00;;;10.60
21210;BMP180;10762;42.206;25.326;2024-02-21T04:03:02;100155.00;;;10.70
21210;BMP180;10762;42.206;25.326;2024-02-21T04:05:28;100168.00;;;10.70
21210;BMP180;10762;42.206;25.326;2024-02-21T04:07:54;100164.00;;;10.80
21210;BMP180;10762;42.206;25.326;2024-02-21T04:10:20;100163.00;;;10.80
21210;BMP180;10762;42.206;25.326;2024-02-21T04:12:46;100163.00;;;10.90
21210;BMP180;10762;42.206;25.326;2024-02-21T04:15:12;100166.00;;;10.90
21210;BMP180;10762;42.206;25.326;2024-02-21T04:17:38;100165.00;;;10.90
21210;BMP180;10762;42.206;25.326;2024-02-21T04:20:05;100164.00;;;10.90
21210;BMP180;10762;42.206;25.326;2024-02-21T04:22:31;100170.00;;;11.00
21210;BMP180;10762;42.206;25.326;2024-02-21T04:25:00;100166.00;;;11.00
21210;BMP180;10762;42.206;25.326;2024-02-21T04:27:26;100172.00;;;11.00
21210;BMP180;10762;42.206;25.326;2024-02-21T04:29:53;100169.00;;;11.00
21210;BMP180;10762;42.206;25.326;2024-02-21T04:32:19;100172.00;;;11.00
21210;BMP180;10762;42.206;25.326;2024-02-21T04:34:45;100175.00;;;10.90
21210;BMP180;10762;42.206;25.326;2024-02-21T04:37:11;100173.00;;;11.00
21210;BMP180;10762;42.206;25.326;2024-02-21T04:39:37;100177.00;;;10.90
21210;BMP180;10762;42.206;25.326;2024-02-21T04:42:03;100178.00;;;11.00
21210;BMP180;10762;42.206;25.326;2024-02-21T04:44:29;100183.00;;;11.00
21210;BMP180;10762;42.206;25.326;2024-02-21T04:46:55;100182.00;;;11.00
21210;BMP180;10762;42.206;25.326;2024-02-21T04:49:21;100183.00;;;11.00
21210;BMP180;10762;42.206;25.326;2024-02-21T04:51:47;100175.00;;;11.00
21210;BMP180;10762;42.206;25.326;2024-02-21T04:54:13;100172.00;;;11.00
21210;BMP180;10762;42.206;25.326;2024-02-21T04:56:39;100165.00;;;11.00
21210;BMP180;10762;42.206;25.326;2024-02-21T04:59:05;100169.00;;;11.00
21210;BMP180;10762;42.206;25.326;2024-02-21T05:01:31;100175.00;;;11.00
21210;BMP180;10762;42.206;25.326;2024-02-21T05:03:57;100177.00;;;11.00
21210;BMP180;10762;42.206;25.326;2024-02-21T05:06:23;100175.00;;;11.00
21210;BMP180;10762;42.206;25.326;2024-02-21T05:08:49;100181.00;;;11.00
21210;BMP180;10762;42.206;25.326;2024-02-21T05:11:15;100186.00;;;11.00
21210;BMP180;10762;42.206;25.326;2024-02-21T05:13:41;100188.00;;;11.10
21210;BMP180;10762;42.206;25.326;2024-02-21T05:16:07;100190.00;;;11.10
21210;BMP180;10762;42.206;25.326;2024-02-21T05:18:33;100192.00;;;11.10
21210;BMP180;10762;42.206;25.326;2024-02-21T05:21:00;100196.00;;;11.10
21210;BMP180;10762;42.206;25.326;2024-02-21T05:23:26;100201.00;;;11.00
21210;BMP180;10762;42.206;25.326;2024-02-21T05:25:53;100201.00;;;11.00
21210;BMP180;10762;42.206;25.326;2024-02-21T05:28:19;100202.00;;;11.00
21210;BMP180;10762;42.206;25.326;2024-02-21T05:30:45;100203.00;;;11.00
21210;BMP180;10762;42.206;25.326;2024-02-21T05:33:11;100210.00;;;11.00
21210;BMP180;10762;42.206;25.326;2024-02-21T05:35:37;100209.00;;;11.00
21210;BMP180;10762;42.206;25.326;2024-02-21T05:38:03;100202.00;;;11.00
21210;BMP180;10762;42.206;25.326;2024-02-21T05:40:37;100215.00;;;11.00
21210;BMP180;10762;42.206;25.326;2024-02-21T05:43:03;100227.00;;;11.00
21210;BMP180;10762;42.206;25.326;2024-02-21T05:45:29;100215.00;;;11.00
21210;BMP180;10762;42.206;25.326;2024-02-21T05:47:55;100224.00;;;11.00
21210;BMP180;10762;42.206;25.326;2024-02-21T05:50:23;100223.00;;;11.10
21210;BMP180;10762;42.206;25.326;2024-02-21T05:52:55;100221.00;;;11.10
21210;BMP180;10762;42.206;25.326;2024-02-21T05:55:22;100227.00;;;11.10
21210;BMP180;10762;42.206;25.326;2024-02-21T05:57:48;100222.00;;;11.20
21210;BMP180;10762;42.206;25.326;2024-02-21T06:00:14;100225.00;;;11.10
21210;BMP180;10762;42.206;25.326;2024-02-21T06:02:41;100222.00;;;11.20
21210;BMP180;10762;42.206;25.326;2024-02-21T06:05:07;100240.00;;;11.20
21210;BMP180;10762;42.206;25.326;2024-02-21T06:07:34;100229.00;;;11.20
21210;BMP180;10762;42.206;25.326;2024-02-21T06:10:01;100234.00;;;11.20
21210;BMP180;10762;42.206;25.326;2024-02-21T06:12:27;100237.00;;;11.20
21210;BMP180;10762;42.206;25.326;2024-02-21T06:14:53;100242.00;;;11.20
21210;BMP180;10762;42.206;25.326;2024-02-21T06:17:19;100234.00;;;11.20
21210;BMP180;10762;42.206;25.326;2024-02-21T06:19:45;100241.00;;;11.20
21210;BMP180;10762;42.206;25.326;2024-02-21T06:22:11;100237.00;;;11.20
21210;BMP180;10762;42.206;25.326;2024-02-21T06:24:38;100252.00;;;11.20
21210;BMP180;10762;42.206;25.326;2024-02-21T06:27:04;100242.00;;;11.20
21210;BMP180;10762;42.206;25.326;2024-02-21T06:29:32;100256.00;;;11.20
21210;BMP180;10762;42.206;25.326;2024-02-21T06:31:58;100250.00;;;11.10
21210;BMP180;10762;42.206;25.326;2024-02-21T06:34:24;100251.00;;;11.20
21210;BMP180;10762;42.206;25.326;2024-02-21T06:36:50;100254.00;;;11.20
21210;BMP180;10762;42.206;25.326;2024-02-21T06:39:16;100250.00;;;11.20
21210;BMP180;10762;42.206;25.326;2024-02-21T06:41:43;100255.00;;;11.30
21210;BMP180;10762;42.206;25.326;2024-02-21T06:44:09;100265.00;;;11.30
21210;BMP180;10762;42.206;25.326;2024-02-21T06:46:35;100256.00;;;11.40
21210;BMP180;10762;42.206;25.326;2024-02-21T06:49:02;100264.00;;;11.40
21210;BMP180;10762;42.206;25.326;2024-02-21T06:51:29;100255.00;;;11.50
21210;BMP180;10762;42.206;25.326;2024-02-21T06:53:55;100255.00;;;11.60
21210;BMP180;10762;42.206;25.326;2024-02-21T06:56:24;100262.00;;;11.70
21210;BMP180;10762;42.206;25.326;2024-02-21T06:58:52;100256.00;;;11.80
21210;BMP180;10762;42.206;25.326;2024-02-21T07:01:18;100250.00;;;12.00
21210;BMP180;10762;42.206;25.326;2024-02-21T07:03:44;100252.00;;;12.10
21210;BMP180;10762;42.206;25.326;2024-02-21T07:06:10;100257.00;;;12.20
21210;BMP180;10762;42.206;25.326;2024-02-21T07:08:36;100248.00;;;12.40
21210;BMP180;10762;42.206;25.326;2024-02-21T07:11:03;100244.00;;;12.50
21210;BMP180;10762;42.206;25.326;2024-02-21T07:13:29;100252.00;;;12.70
21210;BMP180;10762;42.206;25.326;2024-02-21T07:15:55;100250.00;;;12.80
21210;BMP180;10762;42.206;25.326;2024-02-21T07:18:21;100252.00;;;13.00
21210;BMP180;10762;42.206;25.326;2024-02-21T07:20:47;100241.00;;;13.00
21210;BMP180;10762;42.206;25.326;2024-02-21T07:23:13;100256.00;;;13.10
21210;BMP180;10762;42.206;25.326;2024-02-21T07:25:39;100253.00;;;13.10
21210;BMP180;10762;42.206;25.326;2024-02-21T07:28:05;100265.00;;;13.20
21210;BMP180;10762;42.206;25.326;2024-02-21T07:30:32;100255.00;;;13.30
21210;BMP180;10762;42.206;25.326;2024-02-21T07:32:58;100261.00;;;13.30
21210;BMP180;10762;42.206;25.326;2024-02-21T07:35:24;100263.00;;;13.50
21210;BMP180;10762;42.206;25.326;2024-02-21T07:37:50;100261.00;;;13.60
21210;BMP180;10762;42.206;25.326;2024-02-21T07:40:16;100255.00;;;13.70
21210;BMP180;10762;42.206;25.326;2024-02-21T07:42:43;100264.00;;;13.80
21210;BMP180;10762;42.206;25.326;2024-02-21T07:45:09;100260.00;;;13.90
21210;BMP180;10762;42.206;25.326;2024-02-21T07:47:36;100254.00;;;14.00
21210;BMP180;10762;42.206;25.326;2024-02-21T07:50:03;100247.00;;;14.10
21210;BMP180;10762;42.206;25.326;2024-02-21T07:52:29;100249.00;;;14.20
21210;BMP180;10762;42.206;25.326;2024-02-21T07:54:55;100251.00;;;14.30
21210;BMP180;10762;42.206;25.326;2024-02-21T07:57:21;100249.00;;;14.50
21210;BMP180;10762;42.206;25.326;2024-02-21T07:59:47;100247.00;;;14.80
21210;BMP180;10762;42.206;25.326;2024-02-21T08:02:14;100243.00;;;14.90
21210;BMP180;10762;42.206;25.326;2024-02-21T08:04:40;100245.00;;;15.10
21210;BMP180;10762;42.206;25.326;2024-02-21T08:07:06;100240.00;;;15.20
21210;BMP180;10762;42.206;25.326;2024-02-21T08:09:32;100251.00;;;15.40
21210;BMP180;10762;42.206;25.326;2024-02-21T08:11:58;100243.00;;;15.50
21210;BMP180;10762;42.206;25.326;2024-02-21T08:14:24;100251.00;;;15.70
21210;BMP180;10762;42.206;25.326;2024-02-21T08:16:53;100248.00;;;15.70
21210;BMP180;10762;42.206;25.326;2024-02-21T08:19:21;100250.00;;;15.90
21210;BMP180;10762;42.206;25.326;2024-02-21T08:21:48;100246.00;;;16.00
21210;BMP180;10762;42.206;25.326;2024-02-21T08:24:14;100247.00;;;16.10
21210;BMP180;10762;42.206;25.326;2024-02-21T08:26:41;100248.00;;;16.30
21210;BMP180;10762;42.206;25.326;2024-02-21T08:29:07;100244.00;;;16.40
21210;BMP180;10762;42.206;25.326;2024-02-21T08:31:33;100247.00;;;16.60
21210;BMP180;10762;42.206;25.326;2024-02-21T08:34:00;100244.00;;;16.60
21210;BMP180;10762;42.206;25.326;2024-02-21T08:36:30;100242.00;;;16.50
21210;BMP180;10762;42.206;25.326;2024-02-21T08:38:56;100251.00;;;16.50
21210;BMP180;10762;42.206;25.326;2024-02-21T08:41:23;100237.00;;;16.50
21210;BMP180;10762;42.206;25.326;2024-02-21T08:43:50;100245.00;;;16.60
21210;BMP180;10762;42.206;25.326;2024-02-21T08:46:16;100247.00;;;16.80
21210;BMP180;10762;42.206;25.326;2024-02-21T08:48:43;100250.00;;;16.90
21210;BMP180;10762;42.206;25.326;2024-02-21T08:51:09;100254.00;;;17.00
21210;BMP180;10762;42.206;25.326;2024-02-21T08:53:35;100257.00;;;17.00
21210;BMP180;10762;42.206;25.326;2024-02-21T08:56:01;100252.00;;;17.00
21210;BMP180;10762;42.206;25.326;2024-02-21T08:58:27;100256.00;;;17.20
21210;BMP180;10762;42.206;25.326;2024-02-21T09:00:53;100256.00;;;17.40
21210;BMP180;10762;42.206;25.326;2024-02-21T09:03:19;100259.00;;;17.50
21210;BMP180;10762;42.206;25.326;2024-02-21T09:05:46;100259.00;;;17.60
21210;BMP180;10762;42.206;25.326;2024-02-21T09:08:12;100261.00;;;17.70
21210;BMP180;10762;42.206;25.326;2024-02-21T09:10:41;100262.00;;;17.70
21210;BMP180;10762;42.206;25.326;2024-02-21T09:13:07;100263.00;;;17.90
21210;BMP180;10762;42.206;25.326;2024-02-21T09:15:34;100257.00;;;17.90
21210;BMP180;10762;42.206;25.326;2024-02-21T09:18:00;100261.00;;;18.20
21210;BMP180;10762;42.206;25.326;2024-02-21T09:20:26;100258.00;;;18.30
21210;BMP180;10762;42.206;25.326;2024-02-21T09:22:52;100253.00;;;18.20
21210;BMP180;10762;42.206;25.326;2024-02-21T09:25:18;100256.00;;;18.20
21210;BMP180;10762;42.206;25.326;2024-02-21T09:27:45;100255.00;;;18.20
21210;BMP180;10762;42.206;25.326;2024-02-21T09:30:11;100249.00;;;18.20
21210;BMP180;10762;42.206;25.326;2024-02-21T09:32:37;100249.00;;;18.20
21210;BMP180;10762;42.206;25.326;2024-02-21T09:35:04;100242.00;;;18.30
21210;BMP180;10762;42.206;25.326;2024-02-21T09:37:31;100245.00;;;18.40
21210;BMP180;10762;42.206;25.326;2024-02-21T09:39:57;100248.00;;;18.50
21210;BMP180;10762;42.206;25.326;2024-02-21T09:42:25;100237.00;;;18.50
21210;BMP180;10762;42.206;25.326;2024-02-21T09:44:53;100244.00;;;18.70
21210;BMP180;10762;42.206;25.326;2024-02-21T09:47:22;100237.00;;;18.70
21210;BMP180;10762;42.206;25.326;2024-02-21T09:49:48;100236.00;;;18.70
21210;BMP180;10762;42.206;25.326;2024-02-21T09:52:15;100235.00;;;18.70
21210;BMP180;10762;42.206;25.326;2024-02-21T09:54:41;100233.00;;;18.70
21210;BMP180;10762;42.206;25.326;2024-02-21T09:57:10;100232.00;;;18.70
21210;BMP180;10762;42.206;25.326;2024-02-21T09:59:36;100232.00;;;18.80
21210;BMP180;10762;42.206;25.326;2024-02-21T10:02:03;100230.00;;;18.90
21210;BMP180;10762;42.206;25.326;2024-02-21T10:04:30;100223.00;;;18.90
21210;BMP180;10762;42.206;25.326;2024-02-21T10:06:56;100221.00;;;19.00
21210;BMP180;10762;42.206;25.326;2024-02-21T10:11:49;100217.00;;;19.10
21210;BMP180;10762;42.206;25.326;2024-02-21T10:14:16;100210.00;;;19.30
21210;BMP180;10762;42.206;25.326;2024-02-21T10:16:43;100215.00;;;19.30
21210;BMP180;10762;42.206;25.326;2024-02-21T10:19:19;100209.00;;;19.40
21210;BMP180;10762;42.206;25.326;2024-02-21T10:22:01;100204.00;;;19.30
21210;BMP180;10762;42.206;25.326;2024-02-21T10:24:27;100190.00;;;19.40
21210;BMP180;10762;42.206;25.326;2024-02-21T10:27:04;100183.00;;;19.50
21210;BMP180;10762;42.206;25.326;2024-02-21T10:29:31;100182.00;;;19.50
21210;BMP180;10762;42.206;25.326;2024-02-21T10:32:03;100189.00;;;19.50
21210;BMP180;10762;42.206;25.326;2024-02-21T10:34:29;100175.00;;;19.40
21210;BMP180;10762;42.206;25.326;2024-02-21T10:36:59;100171.00;;;19.60
21210;BMP180;10762;42.206;25.326;2024-02-21T10:39:26;100170.00;;;19.80
21210;BMP180;10762;42.206;25.326;2024-02-21T10:41:52;100165.00;;;20.00
21210;BMP180;10762;42.206;25.326;2024-02-21T10:44:19;100152.00;;;20.30
21210;BMP180;10762;42.206;25.326;2024-02-21T10:46:45;100153.00;;;20.50
21210;BMP180;10762;42.206;25.326;2024-02-21T10:49:13;100148.00;;;20.70
21210;BMP180;10762;42.206;25.326;2024-02-21T10:51:42;100146.00;;;20.90
21210;BMP180;10762;42.206;25.326;2024-02-21T10:56:47;100133.00;;;21.20
21210;BMP180;10762;42.206;25.326;2024-02-21T10:59:15;100136.00;;;21.40
21210;BMP180;10762;42.206;25.326;2024-02-21T11:01:43;100131.00;;;21.20
21210;BMP180;10762;42.206;25.326;2024-02-21T11:04:09;100125.00;;;20.90
21210;BMP180;10762;42.206;25.326;2024-02-21T11:06:38;100127.00;;;20.60
21210;BMP180;10762;42.206;25.326;2024-02-21T11:09:05;100130.00;;;20.50
21210;BMP180;10762;42.206;25.326;2024-02-21T11:11:35;100118.00;;;20.60
21210;BMP180;10762;42.206;25.326;2024-02-21T11:14:05;100115.00;;;20.50
21210;BMP180;10762;42.206;25.326;2024-02-21T11:16:35;100111.00;;;20.50
21210;BMP180;10762;42.206;25.326;2024-02-21T11:19:05;100106.00;;;20.60
21210;BMP180;10762;42.206;25.326;2024-02-21T11:21:34;100104.00;;;20.80
21210;BMP180;10762;42.206;25.326;2024-02-21T11:24:02;100104.00;;;21.00
21210;BMP180;10762;42.206;25.326;2024-02-21T11:26:29;100102.00;;;21.00
21210;BMP180;10762;42.206;25.326;2024-02-21T11:28:56;100098.00;;;21.10
21210;BMP180;10762;42.206;25.326;2024-02-21T11:31:22;100103.00;;;21.30
21210;BMP180;10762;42.206;25.326;2024-02-21T11:33:48;100093.00;;;21.40
21210;BMP180;10762;42.206;25.326;2024-02-21T11:36:24;100093.00;;;21.60
21210;BMP180;10762;42.206;25.326;2024-02-21T11:38:51;100088.00;;;21.50
21210;BMP180;10762;42.206;25.326;2024-02-21T11:41:17;100078.00;;;21.40
21210;BMP180;10762;42.206;25.326;2024-02-21T11:43:43;100081.00;;;21.40
21210;BMP180;10762;42.206;25.326;2024-02-21T11:46:09;100081.00;;;21.40
21210;BMP180;10762;42.206;25.326;2024-02-21T11:48:35;100091.00;;;21.30
21210;BMP180;10762;42.206;25.326;2024-02-21T11:51:01;100081.00;;;21.10
21210;BMP180;10762;42.206;25.326;2024-02-21T11:53:29;100075.00;;;21.10
21210;BMP180;10762;42.206;25.326;2024-02-21T11:55:56;100078.00;;;21.30
21210;BMP180;10762;42.206;25.326;2024-02-21T11:58:22;100082.00;;;21.50
21210;BMP180;10762;42.206;25.326;2024-02-21T12:00:49;100068.00;;;21.70
21210;BMP180;10762;42.206;25.326;2024-02-21T12:03:15;100070.00;;;21.80
21210;BMP180;10762;42.206;25.326;2024-02-21T12:05:41;100066.00;;;21.90
21210;BMP180;10762;42.206;25.326;2024-02-21T12:08:07;100061.00;;;22.00
21210;BMP180;10762;42.206;25.326;2024-02-21T12:10:35;100061.00;;;22.10
21210;BMP180;10762;42.206;25.326;2024-02-21T12:13:08;100053.00;;;22.20
21210;BMP180;10762;42.206;25.326;2024-02-21T12:15:34;100059.00;;;22.40
21210;BMP180;10762;42.206;25.326;2024-02-21T12:18:00;100056.00;;;22.20
21210;BMP180;10762;42.206;25.326;2024-02-21T12:20:26;100057.00;;;21.70
21210;BMP180;10762;42.206;25.326;2024-02-21T12:22:52;100047.00;;;21.70
21210;BMP180;10762;42.206;25.326;2024-02-21T12:25:20;100055.00;;;21.90
21210;BMP180;10762;42.206;25.326;2024-02-21T12:27:51;100044.00;;;21.90
21210;BMP180;10762;42.206;25.326;2024-02-21T12:30:18;100051.00;;;21.80
21210;BMP180;10762;42.206;25.326;2024-02-21T12:32:48;100047.00;;;21.80
21210;BMP180;10762;42.206;25.326;2024-02-21T12:35:14;100047.00;;;21.80
21210;BMP180;10762;42.206;25.326;2024-02-21T12:37:40;100041.00;;;21.70
21210;BMP180;10762;42.206;25.326;2024-02-21T12:40:08;100043.00;;;21.60
21210;BMP180;10762;42.206;25.326;2024-02-21T12:42:34;100053.00;;;21.50
21210;BMP180;10762;42.206;25.326;2024-02-21T12:45:01;100045.00;;;21.40
21210;BMP180;10762;42.206;25.326;2024-02-21T12:47:29;100041.00;;;21.30
21210;BMP180;10762;42.206;25.326;2024-02-21T12:49:55;100037.00;;;21.30
21210;BMP180;10762;42.206;25.326;2024-02-21T12:52:21;100033.00;;;21.30
21210;BMP180;10762;42.206;25.326;2024-02-21T12:54:47;100029.00;;;21.00
21210;BMP180;10762;42.206;25.326;2024-02-21T12:57:13;100027.00;;;21.00
21210;BMP180;10762;42.206;25.326;2024-02-21T12:59:40;100026.00;;;20.90
21210;BMP180;10762;42.206;25.326;2024-02-21T13:02:06;100025.00;;;21.10
21210;BMP180;10762;42.206;25.326;2024-02-21T13:04:32;100029.00;;;21.00
21210;BMP180;10762;42.206;25.326;2024-02-21T13:06:58;100026.00;;;21.10
21210;BMP180;10762;42.206;25.326;2024-02-21T13:09:25;100019.00;;;21.10
21210;BMP180;10762;42.206;25.326;2024-02-21T13:11:51;100019.00;;;21.20
21210;BMP180;10762;42.206;25.326;2024-02-21T13:14:17;100006.00;;;21.20
21210;BMP180;10762;42.206;25.326;2024-02-21T13:16:43;100014.00;;;21.30
21210;BMP180;10762;42.206;25.326;2024-02-21T13:19:09;100006.00;;;21.20
21210;BMP180;10762;42.206;25.326;2024-02-21T13:21:36;100008.00;;;20.90
21210;BMP180;10762;42.206;25.326;2024-02-21T13:24:02;100002.00;;;20.70
21210;BMP180;10762;42.206;25.326;2024-02-21T13:26:28;99994.00;;;20.60
21210;BMP180;10762;42.206;25.326;2024-02-21T13:28:54;99994.00;;;20.60
21210;BMP180;10762;42.206;25.326;2024-02-21T13:31:20;99997.00;;;20.70
21210;BMP180;10762;42.206;25.326;2024-02-21T13:33:46;99994.00;;;20.60
21210;BMP180;10762;42.206;25.326;2024-02-21T13:36:13;99990.00;;;20.50
21210;BMP180;10762;42.206;25.326;2024-02-21T13:38:39;99992.00;;;20.50
21210;BMP180;10762;42.206;25.326;2024-02-21T13:41:05;99989.00;;;20.50
21210;BMP180;10762;42.206;25.326;2024-02-21T13:43:32;99989.00;;;20.40
21210;BMP180;10762;42.206;25.326;2024-02-21T13:45:59;99988.00;;;20.40